sensor_id;sensor_type;location;lat;lon;timestamp;temperature;humidity
2523;DHT22;1272;53.332;9.860;2022-12-11T00:00:17;-0.40;1.00
2523;DHT22;1272;53.332;9.860;2022-12-11T00:02:43;-0.50;99.90
2523;DHT22;1272;53.332;9.860;2022-12-11T00:05:09;-0.50;95.50
2523;DHT22;1272;53.332;9.860;2022-12-11T00:07:35;-0.50;1.00
2523;DHT22;1272;53.332;9.860;2022-12-11T00:10:01;-0.50;1.00
2523;DHT22;1272;53.332;9.860;2022-12-11T00:12:29;-0.50;99.90
2523;DHT22;1272;53.332;9.860;2022-12-11T00:14:54;-0.50;1.00
2523;DHT22;1272;53.332;9.860;2022-12-11T00:17:20;-0.50;99.90
2523;DHT22;1272;53.332;9.860;2022-12-11T00:19:45;-0.40;99.90
2523;DHT22;1272;53.332;9.860;2022-12-11T00:22:11;-0.50;1.00
2523;DHT22;1272;53.332;9.860;2022-12-11T00:24:37;-0.50;99.90
2523;DHT22;1272;53.332;9.860;2022-12-11T00:27:03;-0.50;1.00
2523;DHT22;1272;53.332;9.860;2022-12-11T00:29:28;-0.50;99.90
2523;DHT22;1272;53.332;9.860;2022-12-11T00:31:54;-0.50;1.00
2523;DHT22;1272;53.332;9.860;2022-12-11T00:34:19;-0.40;1.00
2523;DHT22;1272;53.332;9.860;2022-12-11T00:36:45;-0.40;99.90
2523;DHT22;1272;53.332;9.860;2022-12-11T00:39:11;-0.40;55.00
2523;DHT22;1272;53.332;9.860;2022-12-11T00:41:37;-0.40;1.00
2523;DHT22;1272;53.332;9.860;2022-12-11T00:44:03;-0.40;1.00
2523;DHT22;1272;53.332;9.860;2022-12-11T00:46:28;-0.50;1.00
2523;DHT22;1272;53.332;9.860;2022-12-11T00:48:54;-0.40;1.00
2523;DHT22;1272;53.332;9.860;2022-12-11T00:51:20;-0.40;1.00
2523;DHT22;1272;53.332;9.860;2022-12-11T00:53:46;-0.40;99.90
2523;DHT22;1272;53.332;9.860;2022-12-11T00:56:14;-0.40;1.00
2523;DHT22;1272;53.332;9.860;2022-12-11T00:58:39;-0.40;1.00
2523;DHT22;1272;53.332;9.860;2022-12-11T01:01:07;-0.40;1.00
2523;DHT22;1272;53.332;9.860;2022-12-11T01:03:33;-0.40;42.30
2523;DHT22;1272;53.332;9.860;2022-12-11T01:05:59;-0.30;32.30
2523;DHT22;1272;53.332;9.860;2022-12-11T01:08:24;-0.40;99.90
2523;DHT22;1272;53.332;9.860;2022-12-11T01:10:50;-0.40;1.00
2523;DHT22;1272;53.332;9.860;2022-12-11T01:13:16;-0.40;18.60
2523;DHT22;1272;53.332;9.860;2022-12-11T01:15:44;-0.40;99.90
2523;DHT22;1272;53.332;9.860;2022-12-11T01:18:11;-0.40;99.90
2523;DHT22;1272;53.332;9.860;2022-12-11T01:20:39;-0.40;99.90
2523;DHT22;1272;53.332;9.860;2022-12-11T01:23:06;-0.40;1.00
2523;DHT22;1272;53.332;9.860;2022-12-11T01:25:34;-0.40;99.90
2523;DHT22;1272;53.332;9.860;2022-12-11T01:28:00;-0.40;1.00
2523;DHT22;1272;53.332;9.860;2022-12-11T01:30:26;-0.40;1.00
2523;DHT22;1272;53.332;9.860;2022-12-11T01:32:51;-0.40;99.90
2523;DHT22;1272;53.332;9.860;2022-12-11T01:35:18;-0.50;1.00
2523;DHT22;1272;53.332;9.860;2022-12-11T01:37:44;-0.50;99.90
2523;DHT22;1272;53.332;9.860;2022-12-11T01:40:17;-0.50;1.00
2523;DHT22;1272;53.332;9.860;2022-12-11T01:42:43;-0.60;99.90
2523;DHT22;1272;53.332;9.860;2022-12-11T01:45:37;-0.60;99.90
2523;DHT22;1272;53.332;9.860;2022-12-11T01:48:15;-0.60;99.90
2523;DHT22;1272;53.332;9.860;2022-12-11T01:50:51;-0.50;1.00
2523;DHT22;1272;53.332;9.860;2022-12-11T01:53:26;-0.50;1.00
2523;DHT22;1272;53.332;9.860;2022-12-11T01:55:54;-0.50;1.00
2523;DHT22;1272;53.332;9.860;2022-12-11T01:58:23;-0.50;99.90
2523;DHT22;1272;53.332;9.860;2022-12-11T02:00:51;-0.50;99.90
2523;DHT22;1272;53.332;9.860;2022-12-11T02:03:18;-0.50;99.90
2523;DHT22;1272;53.332;9.860;2022-12-11T02:05:44;-0.50;1.00
2523;DHT22;1272;53.332;9.860;2022-12-11T02:08:10;-0.40;99.90
2523;DHT22;1272;53.332;9.860;2022-12-11T02:21:40;-0.40;1.00
2523;DHT22;1272;53.332;9.860;2022-12-11T02:29:38;-0.40;90.30
2523;DHT22;1272;53.332;9.860;2022-12-11T02:32:15;-0.40;1.00
2523;DHT22;1272;53.332;9.860;2022-12-11T02:34:50;-0.40;1.00
2523;DHT22;1272;53.332;9.860;2022-12-11T02:37:22;-0.40;1.00
2523;DHT22;1272;53.332;9.860;2022-12-11T02:39:51;-0.40;99.90
2523;DHT22;1272;53.332;9.860;2022-12-11T02:42:18;-0.50;1.00
2523;DHT22;1272;53.332;9.860;2022-12-11T02:44:49;-0.50;1.00
2523;DHT22;1272;53.332;9.860;2022-12-11T02:47:16;-0.50;1.00
2523;DHT22;1272;53.332;9.860;2022-12-11T02:49:45;-0.50;1.00
2523;DHT22;1272;53.332;9.860;2022-12-11T02:52:13;-0.50;18.10
2523;DHT22;1272;53.332;9.860;2022-12-11T02:54:42;-0.50;1.00
2523;DHT22;1272;53.332;9.860;2022-12-11T02:57:16;-0.50;1.00
2523;DHT22;1272;53.332;9.860;2022-12-11T02:59:45;-0.50;1.00
2523;DHT22;1272;53.332;9.860;2022-12-11T03:02:12;-0.50;1.00
2523;DHT22;1272;53.332;9.860;2022-12-11T03:04:40;-0.50;99.90
2523;DHT22;1272;53.332;9.860;2022-12-11T03:07:09;-0.50;1.00
2523;DHT22;1272;53.332;9.860;2022-12-11T03:09:38;-0.50;1.00
2523;DHT22;1272;53.332;9.860;2022-12-11T03:12:05;-0.50;77.90
2523;DHT22;1272;53.332;9.860;2022-12-11T03:14:32;-0.50;99.90
2523;DHT22;1272;53.332;9.860;2022-12-11T03:17:07;-0.50;99.90
2523;DHT22;1272;53.332;9.860;2022-12-11T03:19:46;-0.50;1.00
2523;DHT22;1272;53.332;9.860;2022-12-11T03:22:18;-0.50;1.00
2523;DHT22;1272;53.332;9.860;2022-12-11T03:24:51;-0.50;1.00
2523;DHT22;1272;53.332;9.860;2022-12-11T03:27:27;-0.40;1.00
2523;DHT22;1272;53.332;9.860;2022-12-11T03:30:13;-0.40;1.00
2523;DHT22;1272;53.332;9.860;2022-12-11T03:32:48;-0.40;24.20
2523;DHT22;1272;53.332;9.860;2022-12-11T03:35:28;-0.40;59.40
2523;DHT22;1272;53.332;9.860;2022-12-11T03:37:59;-0.40;99.90
2523;DHT22;1272;53.332;9.860;2022-12-11T03:40:27;-0.40;99.90
2523;DHT22;1272;53.332;9.860;2022-12-11T03:42:56;-0.40;99.90
2523;DHT22;1272;53.332;9.860;2022-12-11T03:45:23;-0.40;99.90
2523;DHT22;1272;53.332;9.860;2022-12-11T03:47:51;-0.50;99.90
2523;DHT22;1272;53.332;9.860;2022-12-11T03:50:19;-0.40;99.90
2523;DHT22;1272;53.332;9.860;2022-12-11T03:52:47;-0.50;99.90
2523;DHT22;1272;53.332;9.860;2022-12-11T03:55:16;-0.50;99.90
2523;DHT22;1272;53.332;9.860;2022-12-11T03:57:42;-0.50;99.90
2523;DHT22;1272;53.332;9.860;2022-12-11T04:00:11;-0.50;99.90
2523;DHT22;1272;53.332;9.860;2022-12-11T04:02:38;-0.50;99.90
2523;DHT22;1272;53.332;9.860;2022-12-11T04:05:05;-0.50;99.90
2523;DHT22;1272;53.332;9.860;2022-12-11T04:07:30;-0.50;99.90
2523;DHT22;1272;53.332;9.860;2022-12-11T04:09:56;-0.50;99.90
2523;DHT22;1272;53.332;9.860;2022-12-11T04:12:22;-0.50;99.90
2523;DHT22;1272;53.332;9.860;2022-12-11T04:14:48;-0.50;99.90
2523;DHT22;1272;53.332;9.860;2022-12-11T04:17:33;-0.50;99.90
2523;DHT22;1272;53.332;9.860;2022-12-11T04:20:19;-0.50;99.90
2523;DHT22;1272;53.332;9.860;2022-12-11T04:23:05;-0.50;99.90
2523;DHT22;1272;53.332;9.860;2022-12-11T04:25:50;-0.50;99.90
2523;DHT22;1272;53.332;9.860;2022-12-11T04:28:15;-0.50;99.90
2523;DHT22;1272;53.332;9.860;2022-12-11T04:30:47;-0.50;99.90
2523;DHT22;1272;53.332;9.860;2022-12-11T04:33:14;-0.50;1.00
2523;DHT22;1272;53.332;9.860;2022-12-11T04:35:39;-0.50;1.00
2523;DHT22;1272;53.332;9.860;2022-12-11T04:38:05;-0.50;1.00
2523;DHT22;1272;53.332;9.860;2022-12-11T04:40:31;-0.50;1.00
2523;DHT22;1272;53.332;9.860;2022-12-11T04:42:56;-0.50;1.00
2523;DHT22;1272;53.332;9.860;2022-12-11T04:45:28;-0.50;1.00
2523;DHT22;1272;53.332;9.860;2022-12-11T04:47:53;-0.60;1.00
2523;DHT22;1272;53.332;9.860;2022-12-11T04:50:19;-0.60;1.00
2523;DHT22;1272;53.332;9.860;2022-12-11T04:52:45;-0.60;1.00
2523;DHT22;1272;53.332;9.860;2022-12-11T04:55:11;-0.60;1.00
2523;DHT22;1272;53.332;9.860;2022-12-11T04:57:37;-0.60;99.90
2523;DHT22;1272;53.332;9.860;2022-12-11T05:00:05;-0.60;99.90
2523;DHT22;1272;53.332;9.860;2022-12-11T05:02:34;-0.60;99.90
2523;DHT22;1272;53.332;9.860;2022-12-11T05:05:01;-0.70;99.90
2523;DHT22;1272;53.332;9.860;2022-12-11T05:07:27;-0.70;99.90
2523;DHT22;1272;53.332;9.860;2022-12-11T05:09:53;-0.70;99.90
2523;DHT22;1272;53.332;9.860;2022-12-11T05:12:18;-0.70;99.90
2523;DHT22;1272;53.332;9.860;2022-12-11T05:14:44;-0.70;99.90
2523;DHT22;1272;53.332;9.860;2022-12-11T05:17:10;-0.70;99.90
2523;DHT22;1272;53.332;9.860;2022-12-11T05:19:35;-0.70;99.90
2523;DHT22;1272;53.332;9.860;2022-12-11T05:22:01;-0.70;99.90
2523;DHT22;1272;53.332;9.860;2022-12-11T05:24:27;-0.70;99.90
2523;DHT22;1272;53.332;9.860;2022-12-11T05:26:52;-0.70;99.90
2523;DHT22;1272;53.332;9.860;2022-12-11T05:29:18;-0.70;99.90
2523;DHT22;1272;53.332;9.860;2022-12-11T05:31:44;-0.80;99.90
2523;DHT22;1272;53.332;9.860;2022-12-11T05:34:09;-0.80;99.90
2523;DHT22;1272;53.332;9.860;2022-12-11T05:36:35;-0.80;99.90
2523;DHT22;1272;53.332;9.860;2022-12-11T05:39:02;-0.80;99.90
2523;DHT22;1272;53.332;9.860;2022-12-11T05:41:30;-0.80;99.90
2523;DHT22;1272;53.332;9.860;2022-12-11T05:43:57;-0.80;99.90
2523;DHT22;1272;53.332;9.860;2022-12-11T05:46:24;-0.80;99.90
2523;DHT22;1272;53.332;9.860;2022-12-11T05:48:54;-0.80;99.90
2523;DHT22;1272;53.332;9.860;2022-12-11T05:51:21;-0.80;59.50
2523;DHT22;1272;53.332;9.860;2022-12-11T05:53:48;-0.80;1.00
2523;DHT22;1272;53.332;9.860;2022-12-11T05:56:16;-0.80;1.00
2523;DHT22;1272;53.332;9.860;2022-12-11T05:58:44;-0.90;1.00
2523;DHT22;1272;53.332;9.860;2022-12-11T06:01:13;-0.90;1.00
2523;DHT22;1272;53.332;9.860;2022-12-11T06:03:38;-0.80;1.00
2523;DHT22;1272;53.332;9.860;2022-12-11T06:06:05;-0.80;1.00
2523;DHT22;1272;53.332;9.860;2022-12-11T06:08:31;-0.90;1.00
2523;DHT22;1272;53.332;9.860;2022-12-11T06:10:57;-0.90;1.00
2523;DHT22;1272;53.332;9.860;2022-12-11T06:13:24;-0.90;1.00
2523;DHT22;1272;53.332;9.860;2022-12-11T06:15:50;-0.80;1.00
2523;DHT22;1272;53.332;9.860;2022-12-11T06:18:16;-0.80;1.00
2523;DHT22;1272;53.332;9.860;2022-12-11T06:20:41;-0.90;1.00
2523;DHT22;1272;53.332;9.860;2022-12-11T06:23:07;-0.90;99.90
2523;DHT22;1272;53.332;9.860;2022-12-11T06:25:33;-0.90;1.00
2523;DHT22;1272;53.332;9.860;2022-12-11T06:27:59;-0.80;1.00
2523;DHT22;1272;53.332;9.860;2022-12-11T06:30:25;-0.80;99.90
2523;DHT22;1272;53.332;9.860;2022-12-11T06:32:50;-0.80;1.00
2523;DHT22;1272;53.332;9.860;2022-12-11T06:35:16;-0.90;99.90
2523;DHT22;1272;53.332;9.860;2022-12-11T06:37:42;-1.00;99.90
2523;DHT22;1272;53.332;9.860;2022-12-11T06:40:08;-0.90;1.00
2523;DHT22;1272;53.332;9.860;2022-12-11T06:42:35;-0.90;99.90
2523;DHT22;1272;53.332;9.860;2022-12-11T06:45:01;-1.00;99.90
2523;DHT22;1272;53.332;9.860;2022-12-11T06:47:30;-1.10;99.90
2523;DHT22;1272;53.332;9.860;2022-12-11T06:49:56;-1.20;99.90
2523;DHT22;1272;53.332;9.860;2022-12-11T06:52:23;-1.30;1.00
2523;DHT22;1272;53.332;9.860;2022-12-11T06:54:49;-1.30;10.90
2523;DHT22;1272;53.332;9.860;2022-12-11T06:57:15;-1.40;99.90
2523;DHT22;1272;53.332;9.860;2022-12-11T06:59:41;-1.40;99.90
2523;DHT22;1272;53.332;9.860;2022-12-11T07:02:12;-1.50;99.90
2523;DHT22;1272;53.332;9.860;2022-12-11T07:04:39;-1.50;1.00
2523;DHT22;1272;53.332;9.860;2022-12-11T07:07:05;-1.50;1.00
2523;DHT22;1272;53.332;9.860;2022-12-11T07:09:31;-1.50;1.00
2523;DHT22;1272;53.332;9.860;2022-12-11T07:11:57;-1.60;1.00
2523;DHT22;1272;53.332;9.860;2022-12-11T07:14:23;-1.70;99.90
2523;DHT22;1272;53.332;9.860;2022-12-11T07:16:48;-1.70;99.90
2523;DHT22;1272;53.332;9.860;2022-12-11T07:19:14;-1.70;1.00
2523;DHT22;1272;53.332;9.860;2022-12-11T07:21:40;-1.80;1.00
2523;DHT22;1272;53.332;9.860;2022-12-11T07:24:06;-1.80;1.00
2523;DHT22;1272;53.332;9.860;2022-12-11T07:26:35;-1.80;1.00
2523;DHT22;1272;53.332;9.860;2022-12-11T07:29:01;-1.90;1.00
2523;DHT22;1272;53.332;9.860;2022-12-11T07:31:30;-1.90;55.40
2523;DHT22;1272;53.332;9.860;2022-12-11T07:33:57;-1.90;99.90
2523;DHT22;1272;53.332;9.860;2022-12-11T07:36:24;-2.00;99.90
2523;DHT22;1272;53.332;9.860;2022-12-11T07:38:53;-2.00;99.90
2523;DHT22;1272;53.332;9.860;2022-12-11T07:41:19;-2.10;99.90
2523;DHT22;1272;53.332;9.860;2022-12-11T07:43:45;-2.10;1.00
2523;DHT22;1272;53.332;9.860;2022-12-11T07:46:13;-2.10;1.00
2523;DHT22;1272;53.332;9.860;2022-12-11T07:48:40;-2.20;49.20
2523;DHT22;1272;53.332;9.860;2022-12-11T07:51:30;-2.20;43.40
2523;DHT22;1272;53.332;9.860;2022-12-11T07:54:01;-2.30;99.90
2523;DHT22;1272;53.332;9.860;2022-12-11T07:56:28;-2.30;99.90
2523;DHT22;1272;53.332;9.860;2022-12-11T07:58:54;-2.30;99.90
2523;DHT22;1272;53.332;9.860;2022-12-11T08:01:23;-2.40;1.00
2523;DHT22;1272;53.332;9.860;2022-12-11T08:03:50;-2.40;1.00
2523;DHT22;1272;53.332;9.860;2022-12-11T08:06:17;-2.40;1.00
2523;DHT22;1272;53.332;9.860;2022-12-11T08:08:43;-2.40;1.00
2523;DHT22;1272;53.332;9.860;2022-12-11T08:11:13;-2.50;56.10
2523;DHT22;1272;53.332;9.860;2022-12-11T08:13:40;-2.50;55.30
2523;DHT22;1272;53.332;9.860;2022-12-11T08:16:09;-2.50;99.90
2523;DHT22;1272;53.332;9.860;2022-12-11T08:18:36;-2.50;99.90
2523;DHT22;1272;53.332;9.860;2022-12-11T08:21:06;-2.50;99.90
2523;DHT22;1272;53.332;9.860;2022-12-11T08:23:32;-2.50;99.90
2523;DHT22;1272;53.332;9.860;2022-12-11T08:25:58;-2.50;99.90
2523;DHT22;1272;53.332;9.860;2022-12-11T08:28:23;-2.50;99.90
2523;DHT22;1272;53.332;9.860;2022-12-11T08:30:49;-2.50;99.90
2523;DHT22;1272;53.332;9.860;2022-12-11T08:33:15;-2.50;99.90
2523;DHT22;1272;53.332;9.860;2022-12-11T08:35:41;-2.40;99.90
2523;DHT22;1272;53.332;9.860;2022-12-11T08:38:08;-2.40;99.90
2523;DHT22;1272;53.332;9.860;2022-12-11T08:40:34;-2.40;99.90
2523;DHT22;1272;53.332;9.860;2022-12-11T08:42:59;-2.40;99.90
2523;DHT22;1272;53.332;9.860;2022-12-11T08:45:25;-2.40;99.90
2523;DHT22;1272;53.332;9.860;2022-12-11T08:47:51;-2.40;99.90
2523;DHT22;1272;53.332;9.860;2022-12-11T08:50:18;-2.30;99.90
2523;DHT22;1272;53.332;9.860;2022-12-11T08:52:44;-2.30;1.00
2523;DHT22;1272;53.332;9.860;2022-12-11T08:55:09;-2.30;99.90
2523;DHT22;1272;53.332;9.860;2022-12-11T08:57:35;-2.30;99.90
2523;DHT22;1272;53.332;9.860;2022-12-11T09:00:05;-2.20;28.70
2523;DHT22;1272;53.332;9.860;2022-12-11T09:02:31;-2.20;96.50
2523;DHT22;1272;53.332;9.860;2022-12-11T09:04:56;-2.20;87.00
2523;DHT22;1272;53.332;9.860;2022-12-11T09:07:22;-2.20;99.70
2523;DHT22;1272;53.332;9.860;2022-12-11T09:09:48;-2.20;7.90
2523;DHT22;1272;53.332;9.860;2022-12-11T09:12:13;-2.10;56.60
2523;DHT22;1272;53.332;9.860;2022-12-11T09:14:39;-2.20;1.00
2523;DHT22;1272;53.332;9.860;2022-12-11T09:17:05;-2.10;1.00
2523;DHT22;1272;53.332;9.860;2022-12-11T09:19:31;-2.10;1.00
2523;DHT22;1272;53.332;9.860;2022-12-11T09:21:56;-2.10;1.00
2523;DHT22;1272;53.332;9.860;2022-12-11T09:24:22;-2.00;1.00
2523;DHT22;1272;53.332;9.860;2022-12-11T09:26:47;-2.00;1.00
2523;DHT22;1272;53.332;9.860;2022-12-11T09:29:13;-1.90;1.00
2523;DHT22;1272;53.332;9.860;2022-12-11T09:31:39;-1.90;1.00
2523;DHT22;1272;53.332;9.860;2022-12-11T09:34:11;-1.90;1.00
2523;DHT22;1272;53.332;9.860;2022-12-11T09:36:41;-1.80;1.00
2523;DHT22;1272;53.332;9.860;2022-12-11T09:39:10;-1.80;1.00
2523;DHT22;1272;53.332;9.860;2022-12-11T09:42:07;-1.80;99.90
2523;DHT22;1272;53.332;9.860;2022-12-11T09:44:53;-1.70;99.90
2523;DHT22;1272;53.332;9.860;2022-12-11T09:47:42;-1.70;99.90
2523;DHT22;1272;53.332;9.860;2022-12-11T09:50:16;-1.70;99.90
2523;DHT22;1272;53.332;9.860;2022-12-11T09:58:17;-1.50;1.00
2523;DHT22;1272;53.332;9.860;2022-12-11T10:00:47;-1.50;1.00
2523;DHT22;1272;53.332;9.860;2022-12-11T10:03:27;-1.40;99.90
2523;DHT22;1272;53.332;9.860;2022-12-11T10:08:54;-1.30;74.70
2523;DHT22;1272;53.332;9.860;2022-12-11T10:14:21;-1.30;99.90
2523;DHT22;1272;53.332;9.860;2022-12-11T10:17:10;-1.30;99.90
2523;DHT22;1272;53.332;9.860;2022-12-11T10:19:37;-1.20;99.90
2523;DHT22;1272;53.332;9.860;2022-12-11T10:22:07;-1.20;96.90
2523;DHT22;1272;53.332;9.860;2022-12-11T10:24:53;-1.10;37.30
2523;DHT22;1272;53.332;9.860;2022-12-11T10:27:22;-1.10;37.50
2523;DHT22;1272;53.332;9.860;2022-12-11T10:38:20;-0.90;1.00
2523;DHT22;1272;53.332;9.860;2022-12-11T10:41:00;-0.80;99.90
2523;DHT22;1272;53.332;9.860;2022-12-11T10:43:37;-0.70;99.90
2523;DHT22;1272;53.332;9.860;2022-12-11T10:46:06;-0.60;28.80
2523;DHT22;1272;53.332;9.860;2022-12-11T10:48:43;-0.50;1.00
2523;DHT22;1272;53.332;9.860;2022-12-11T10:51:09;-0.50;1.00
2523;DHT22;1272;53.332;9.860;2022-12-11T10:53:35;-0.50;99.90
2523;DHT22;1272;53.332;9.860;2022-12-11T10:56:01;-0.40;1.00
2523;DHT22;1272;53.332;9.860;2022-12-11T10:58:31;-0.40;1.00
2523;DHT22;1272;53.332;9.860;2022-12-11T11:01:14;-0.20;1.00
2523;DHT22;1272;53.332;9.860;2022-12-11T11:04:06;-0.10;1.00
2523;DHT22;1272;53.332;9.860;2022-12-11T11:06:38;0.00;1.00
2523;DHT22;1272;53.332;9.860;2022-12-11T11:09:45;0.20;1.00
2523;DHT22;1272;53.332;9.860;2022-12-11T11:14:43;0.40;99.90
2523;DHT22;1272;53.332;9.860;2022-12-11T11:17:14;0.50;99.90
2523;DHT22;1272;53.332;9.860;2022-12-11T11:19:40;0.60;99.90
2523;DHT22;1272;53.332;9.860;2022-12-11T11:22:11;0.70;99.90
2523;DHT22;1272;53.332;9.860;2022-12-11T11:24:42;0.80;99.90
2523;DHT22;1272;53.332;9.860;2022-12-11T11:29:55;1.00;99.90
2523;DHT22;1272;53.332;9.860;2022-12-11T11:32:31;1.10;1.00
2523;DHT22;1272;53.332;9.860;2022-12-11T11:37:40;1.20;1.00
2523;DHT22;1272;53.332;9.860;2022-12-11T11:40:26;1.20;1.00
2523;DHT22;1272;53.332;9.860;2022-12-11T11:45:45;1.30;99.90
2523;DHT22;1272;53.332;9.860;2022-12-11T11:50:51;1.20;99.90
2523;DHT22;1272;53.332;9.860;2022-12-11T11:53:32;1.20;99.90
2523;DHT22;1272;53.332;9.860;2022-12-11T11:56:16;1.10;99.90
2523;DHT22;1272;53.332;9.860;2022-12-11T12:01:21;1.00;1.00
2523;DHT22;1272;53.332;9.860;2022-12-11T12:03:48;1.00;1.00
2523;DHT22;1272;53.332;9.860;2022-12-11T12:14:23;1.10;1.00
2523;DHT22;1272;53.332;9.860;2022-12-11T12:25:15;1.60;1.00
2523;DHT22;1272;53.332;9.860;2022-12-11T12:36:45;1.80;99.90
2523;DHT22;1272;53.332;9.860;2022-12-11T12:45:02;2.00;99.90
2523;DHT22;1272;53.332;9.860;2022-12-11T12:47:33;2.00;99.90
2523;DHT22;1272;53.332;9.860;2022-12-11T12:50:02;2.10;99.90
2523;DHT22;1272;53.332;9.860;2022-12-11T12:52:36;2.10;99.90
2523;DHT22;1272;53.332;9.860;2022-12-11T12:55:27;2.10;56.10
2523;DHT22;1272;53.332;9.860;2022-12-11T12:57:56;2.00;99.90
2523;DHT22;1272;53.332;9.860;2022-12-11T13:00:43;1.90;99.90
2523;DHT22;1272;53.332;9.860;2022-12-11T13:03:26;1.80;99.90
2523;DHT22;1272;53.332;9.860;2022-12-11T13:08:47;1.60;99.90
2523;DHT22;1272;53.332;9.860;2022-12-11T13:11:14;1.60;99.90
2523;DHT22;1272;53.332;9.860;2022-12-11T13:13:46;1.60;99.90
2523;DHT22;1272;53.332;9.860;2022-12-11T13:18:44;1.40;99.90
2523;DHT22;1272;53.332;9.860;2022-12-11T13:21:31;1.30;99.90
2523;DHT22;1272;53.332;9.860;2022-12-11T13:26:47;1.10;1.00
2523;DHT22;1272;53.332;9.860;2022-12-11T13:29:37;1.10;1.00
2523;DHT22;1272;53.332;9.860;2022-12-11T13:34:44;0.80;1.00
2523;DHT22;1272;53.332;9.860;2022-12-11T13:37:29;0.80;1.00
2523;DHT22;1272;53.332;9.860;2022-12-11T13:39:59;0.70;1.00
2523;DHT22;1272;53.332;9.860;2022-12-11T13:42:35;0.70;1.00
2523;DHT22;1272;53.332;9.860;2022-12-11T13:45:06;0.70;1.00
2523;DHT22;1272;53.332;9.860;2022-12-11T13:47:42;0.70;1.00
2523;DHT22;1272;53.332;9.860;2022-12-11T13:50:29;0.60;1.00
2523;DHT22;1272;53.332;9.860;2022-12-11T13:52:57;0.60;1.00
2523;DHT22;1272;53.332;9.860;2022-12-11T13:55:29;0.70;1.00
2523;DHT22;1272;53.332;9.860;2022-12-11T13:57:55;0.70;1.00
2523;DHT22;1272;53.332;9.860;2022-12-11T14:00:30;0.70;1.00
2523;DHT22;1272;53.332;9.860;2022-12-11T14:03:03;0.80;1.00
2523;DHT22;1272;53.332;9.860;2022-12-11T14:05:33;0.60;1.00
2523;DHT22;1272;53.332;9.860;2022-12-11T14:08:03;0.50;1.00
2523;DHT22;1272;53.332;9.860;2022-12-11T14:10:31;0.40;83.10
2523;DHT22;1272;53.332;9.860;2022-12-11T14:13:22;0.30;99.90
2523;DHT22;1272;53.332;9.860;2022-12-11T14:15:49;0.20;99.90
2523;DHT22;1272;53.332;9.860;2022-12-11T14:18:23;0.10;99.90
2523;DHT22;1272;53.332;9.860;2022-12-11T14:20:57;0.10;99.90
2523;DHT22;1272;53.332;9.860;2022-12-11T14:23:26;0.10;99.90
2523;DHT22;1272;53.332;9.860;2022-12-11T14:26:16;0.00;99.90
2523;DHT22;1272;53.332;9.860;2022-12-11T14:28:43;0.00;1.00
2523;DHT22;1272;53.332;9.860;2022-12-11T14:31:14;0.00;1.00
2523;DHT22;1272;53.332;9.860;2022-12-11T14:33:44;0.00;1.00
2523;DHT22;1272;53.332;9.860;2022-12-11T14:36:13;0.00;1.00
2523;DHT22;1272;53.332;9.860;2022-12-11T14:38:51;0.00;1.00
2523;DHT22;1272;53.332;9.860;2022-12-11T14:41:21;0.00;17.20
2523;DHT22;1272;53.332;9.860;2022-12-11T14:43:54;0.00;16.60
2523;DHT22;1272;53.332;9.860;2022-12-11T14:46:39;-0.10;99.90
2523;DHT22;1272;53.332;9.860;2022-12-11T14:49:22;-0.10;99.90
2523;DHT22;1272;53.332;9.860;2022-12-11T14:51:50;-0.20;99.90
2523;DHT22;1272;53.332;9.860;2022-12-11T14:54:37;-0.20;1.00
2523;DHT22;1272;53.332;9.860;2022-12-11T14:57:05;-0.30;1.00
2523;DHT22;1272;53.332;9.860;2022-12-11T14:59:39;-0.30;1.00
2523;DHT22;1272;53.332;9.860;2022-12-11T15:07:52;-0.50;99.90
2523;DHT22;1272;53.332;9.860;2022-12-11T15:10:23;-0.50;99.90
2523;DHT22;1272;53.332;9.860;2022-12-11T15:12:51;-0.60;1.00
2523;DHT22;1272;53.332;9.860;2022-12-11T15:15:18;-0.70;99.90
2523;DHT22;1272;53.332;9.860;2022-12-11T15:17:45;-0.70;1.00
2523;DHT22;1272;53.332;9.860;2022-12-11T15:20:27;-0.80;59.80
2523;DHT22;1272;53.332;9.860;2022-12-11T15:22:56;-0.80;1.00
2523;DHT22;1272;53.332;9.860;2022-12-11T15:25:24;-0.80;1.00
2523;DHT22;1272;53.332;9.860;2022-12-11T15:27:56;-0.90;1.00
2523;DHT22;1272;53.332;9.860;2022-12-11T15:35:37;-1.10;1.00
2523;DHT22;1272;53.332;9.860;2022-12-11T15:38:03;-1.20;1.00
2523;DHT22;1272;53.332;9.860;2022-12-11T15:40:31;-1.20;99.90
2523;DHT22;1272;53.332;9.860;2022-12-11T15:43:00;-1.20;99.90
2523;DHT22;1272;53.332;9.860;2022-12-11T15:45:26;-1.30;1.00
2523;DHT22;1272;53.332;9.860;2022-12-11T15:47:53;-1.40;99.90
2523;DHT22;1272;53.332;9.860;2022-12-11T15:50:26;-1.40;99.90
2523;DHT22;1272;53.332;9.860;2022-12-11T15:52:55;-1.40;99.90
2523;DHT22;1272;53.332;9.860;2022-12-11T15:55:22;-1.40;99.90
2523;DHT22;1272;53.332;9.860;2022-12-11T15:57:59;-1.40;1.00
2523;DHT22;1272;53.332;9.860;2022-12-11T16:00:25;-1.40;1.00
2523;DHT22;1272;53.332;9.860;2022-12-11T16:02:55;-1.50;1.00
2523;DHT22;1272;53.332;9.860;2022-12-11T16:05:21;-1.50;99.90
2523;DHT22;1272;53.332;9.860;2022-12-11T16:07:48;-1.50;99.90
2523;DHT22;1272;53.332;9.860;2022-12-11T16:10:17;-1.50;99.90
2523;DHT22;1272;53.332;9.860;2022-12-11T16:12:44;-1.50;99.90
2523;DHT22;1272;53.332;9.860;2022-12-11T16:15:12;-1.50;99.90
2523;DHT22;1272;53.332;9.860;2022-12-11T16:17:39;-1.50;1.00
2523;DHT22;1272;53.332;9.860;2022-12-11T16:20:06;-1.50;1.00
2523;DHT22;1272;53.332;9.860;2022-12-11T16:22:32;-1.50;1.00
2523;DHT22;1272;53.332;9.860;2022-12-11T16:24:58;-1.50;1.00
2523;DHT22;1272;53.332;9.860;2022-12-11T16:27:23;-1.50;1.00
2523;DHT22;1272;53.332;9.860;2022-12-11T16:29:49;-1.40;25.50
2523;DHT22;1272;53.332;9.860;2022-12-11T16:32:15;-1.40;24.20
2523;DHT22;1272;53.332;9.860;2022-12-11T16:34:41;-1.30;1.00
2523;DHT22;1272;53.332;9.860;2022-12-11T16:37:08;-1.40;1.00
2523;DHT22;1272;53.332;9.860;2022-12-11T16:39:35;-1.40;1.00
2523;DHT22;1272;53.332;9.860;2022-12-11T16:42:02;-1.40;1.00
2523;DHT22;1272;53.332;9.860;2022-12-11T16:44:28;-1.40;1.00
2523;DHT22;1272;53.332;9.860;2022-12-11T16:46:54;-1.40;1.00
2523;DHT22;1272;53.332;9.860;2022-12-11T16:49:20;-1.40;4.20
2523;DHT22;1272;53.332;9.860;2022-12-11T16:51:55;-1.40;1.00
2523;DHT22;1272;53.332;9.860;2022-12-11T16:54:21;-1.40;7.80
2523;DHT22;1272;53.332;9.860;2022-12-11T16:56:46;-1.40;1.00
2523;DHT22;1272;53.332;9.860;2022-12-11T16:59:12;-1.40;1.00
2523;DHT22;1272;53.332;9.860;2022-12-11T17:01:38;-1.40;11.10
2523;DHT22;1272;53.332;9.860;2022-12-11T17:04:04;-1.40;17.20
2523;DHT22;1272;53.332;9.860;2022-12-11T17:06:30;-1.40;51.00
2523;DHT22;1272;53.332;9.860;2022-12-11T17:08:56;-1.30;67.70
2523;DHT22;1272;53.332;9.860;2022-12-11T17:11:23;-1.30;38.90
2523;DHT22;1272;53.332;9.860;2022-12-11T17:13:54;-1.30;57.70
2523;DHT22;1272;53.332;9.860;2022-12-11T17:16:21;-1.30;87.60
2523;DHT22;1272;53.332;9.860;2022-12-11T17:18:47;-1.30;82.50
2523;DHT22;1272;53.332;9.860;2022-12-11T17:21:16;-1.30;70.30
2523;DHT22;1272;53.332;9.860;2022-12-11T17:23:42;-1.30;79.70
2523;DHT22;1272;53.332;9.860;2022-12-11T17:26:08;-1.30;85.90
2523;DHT22;1272;53.332;9.860;2022-12-11T17:28:34;-1.30;84.40
2523;DHT22;1272;53.332;9.860;2022-12-11T17:31:17;-1.30;85.60
2523;DHT22;1272;53.332;9.860;2022-12-11T17:33:44;-1.20;99.90
2523;DHT22;1272;53.332;9.860;2022-12-11T17:36:12;-1.10;79.40
2523;DHT22;1272;53.332;9.860;2022-12-11T17:38:41;-1.20;65.50
2523;DHT22;1272;53.332;9.860;2022-12-11T17:41:09;-1.20;99.90
2523;DHT22;1272;53.332;9.860;2022-12-11T17:43:35;-1.10;95.00
2523;DHT22;1272;53.332;9.860;2022-12-11T17:46:02;-1.20;74.20
2523;DHT22;1272;53.332;9.860;2022-12-11T17:48:27;-1.20;78.50
2523;DHT22;1272;53.332;9.860;2022-12-11T17:50:53;-1.30;99.90
2523;DHT22;1272;53.332;9.860;2022-12-11T17:53:20;-1.20;99.90
2523;DHT22;1272;53.332;9.860;2022-12-11T17:55:47;-1.20;99.80
2523;DHT22;1272;53.332;9.860;2022-12-11T17:58:16;-1.30;99.90
2523;DHT22;1272;53.332;9.860;2022-12-11T18:00:44;-1.30;99.90
2523;DHT22;1272;53.332;9.860;2022-12-11T18:03:11;-1.30;99.90
2523;DHT22;1272;53.332;9.860;2022-12-11T18:05:45;-1.30;99.90
2523;DHT22;1272;53.332;9.860;2022-12-11T18:08:16;-1.40;99.90
2523;DHT22;1272;53.332;9.860;2022-12-11T18:10:42;-1.30;99.90